createdAt,value
2023-05-24T00:02:03.896Z,57.14
2023-05-24T00:04:53.666Z,57.31
2023-05-24T00:07:43.046Z,57.30
2023-05-24T00:10:32.409Z,57.51
2023-05-24T00:13:21.685Z,58.03
2023-05-24T00:16:12.568Z,58.08
2023-05-24T00:19:02.223Z,58.30
2023-05-24T00:21:51.596Z,58.56
2023-05-24T00:24:40.891Z,58.63
2023-05-24T00:27:30.364Z,58.72
2023-05-24T00:30:19.803Z,59.09
2023-05-24T00:33:11.849Z,59.21
2023-05-24T00:36:01.116Z,58.90
2023-05-24T00:38:50.660Z,58.79
2023-05-24T00:41:40.077Z,59.04
2023-05-24T00:44:29.730Z,59.36
2023-05-24T00:47:19.236Z,59.66
2023-05-24T00:50:13.297Z,59.76
2023-05-24T00:53:05.372Z,59.74
2023-05-24T00:55:56.283Z,59.87
2023-05-24T00:58:46.168Z,59.43
2023-05-24T01:01:35.704Z,60.15
2023-05-24T01:04:26.158Z,60.55
2023-05-24T01:07:27.982Z,61.44
2023-05-24T01:10:26.653Z,61.35
2023-05-24T01:13:25.689Z,62.01
2023-05-24T01:16:24.404Z,62.96
2023-05-24T01:19:50.284Z,62.32
2023-05-24T01:23:16.707Z,62.02
2023-05-24T01:26:22.359Z,62.14
2023-05-24T01:29:14.377Z,61.49
2023-05-24T01:32:03.750Z,62.34
2023-05-24T01:34:53.144Z,62.46
2023-05-24T01:37:42.513Z,62.20
2023-05-24T01:40:31.955Z,62.35
2023-05-24T01:43:31.517Z,62.70
2023-05-24T01:46:33.584Z,63.16
2023-05-24T01:49:28.217Z,62.47
2023-05-24T01:52:22.230Z,61.91
2023-05-24T01:55:13.274Z,62.46
2023-05-24T01:58:05.838Z,62.20
2023-05-24T02:00:55.829Z,62.19
2023-05-24T02:03:47.333Z,62.02
2023-05-24T02:06:38.220Z,62.37
2023-05-24T02:09:30.681Z,62.36
2023-05-24T02:12:19.945Z,63.12
2023-05-24T02:15:11.452Z,62.65
2023-05-24T02:18:01.567Z,62.56
2023-05-24T02:20:53.612Z,63.03
2023-05-24T02:23:43.060Z,63.01
2023-05-24T02:26:33.099Z,63.19
2023-05-24T02:29:23.169Z,63.46
2023-05-24T02:32:12.565Z,63.17
2023-05-24T02:35:03.115Z,63.40
2023-05-24T02:37:54.186Z,63.47
2023-05-24T02:40:43.837Z,63.34
2023-05-24T02:43:33.266Z,63.78
2023-05-24T02:46:22.675Z,63.44
2023-05-24T02:49:12.074Z,63.84
2023-05-24T02:52:01.716Z,63.89
2023-05-24T02:54:52.554Z,64.49
2023-05-24T02:57:43.643Z,64.64
2023-05-24T03:00:33.439Z,64.57
2023-05-24T03:03:23.116Z,64.51
2023-05-24T03:06:14.217Z,64.68
2023-05-24T03:09:03.787Z,65.43
2023-05-24T03:11:54.753Z,65.26
2023-05-24T03:14:44.268Z,65.10
2023-05-24T03:17:33.750Z,65.06
2023-05-24T03:20:23.961Z,65.49
2023-05-24T03:23:15.105Z,65.48
2023-05-24T03:26:05.391Z,65.64
2023-05-24T03:28:56.683Z,66.38
2023-05-24T03:31:53.923Z,66.27
2023-05-24T03:34:43.477Z,66.50
2023-05-24T03:37:32.968Z,66.76
2023-05-24T03:40:22.393Z,67.04
2023-05-24T03:43:18.634Z,67.37
2023-05-24T03:46:13.785Z,67.06
2023-05-24T03:49:04.820Z,67.32
2023-05-24T03:51:54.212Z,67.34
2023-05-24T03:54:43.945Z,67.79
2023-05-24T03:57:33.650Z,67.94
2023-05-24T04:00:24.306Z,67.91
2023-05-24T04:03:15.311Z,67.47
2023-05-24T04:06:05.053Z,67.97
2023-05-24T04:08:54.453Z,67.92
2023-05-24T04:11:43.740Z,68.17
2023-05-24T04:14:35.267Z,68.20
2023-05-24T04:17:25.517Z,68.35
2023-05-24T04:20:17.903Z,68.72
2023-05-24T04:23:07.252Z,68.77
2023-05-24T04:25:56.843Z,69.03
2023-05-24T04:28:47.020Z,68.81
2023-05-24T04:31:37.051Z,68.51
2023-05-24T04:34:29.744Z,69.01
2023-05-24T04:37:20.912Z,68.81
2023-05-24T04:40:12.441Z,69.56
2023-05-24T04:43:01.727Z,69.59
2023-05-24T04:45:54.028Z,69.68
2023-05-24T04:48:45.564Z,69.87
2023-05-24T04:51:38.768Z,70.29
2023-05-24T04:54:31.938Z,70.31
2023-05-24T04:57:21.248Z,71.73
2023-05-24T05:00:12.097Z,71.17
2023-05-24T05:03:01.597Z,70.86
2023-05-24T05:05:51.814Z,71.38
2023-05-24T05:08:41.219Z,72.09
2023-05-24T05:11:33.314Z,71.45
2023-05-24T05:14:22.609Z,71.68
2023-05-24T05:17:13.781Z,72.22
2023-05-24T05:20:06.122Z,72.55
2023-05-24T05:22:55.584Z,72.89
2023-05-24T05:25:50.594Z,72.59
2023-05-24T05:28:44.980Z,73.13
2023-05-24T05:31:34.435Z,73.48
2023-05-24T05:34:23.789Z,73.62
2023-05-24T05:37:13.184Z,73.76
2023-05-24T05:40:06.653Z,74.14
2023-05-24T05:43:00.605Z,73.95
2023-05-24T05:45:51.410Z,74.29
2023-05-24T05:48:46.218Z,74.12
2023-05-24T05:51:39.917Z,73.43
2023-05-24T05:54:35.024Z,73.61
2023-05-24T05:57:30.372Z,73.38
2023-05-24T06:00:22.359Z,73.09
2023-05-24T06:03:13.412Z,72.77
2023-05-24T06:06:02.937Z,72.51
2023-05-24T06:08:52.211Z,72.35
2023-05-24T06:11:45.150Z,72.00
2023-05-24T06:14:34.605Z,71.64
2023-05-24T06:17:24.654Z,71.45
2023-05-24T06:20:17.182Z,71.19
2023-05-24T06:23:07.488Z,70.90
2023-05-24T06:25:56.932Z,71.15
2023-05-24T06:28:46.281Z,70.88
2023-05-24T06:31:35.624Z,70.69
2023-05-24T06:34:24.992Z,70.44
2023-05-24T06:37:16.297Z,70.17
2023-05-24T06:40:09.105Z,69.64
2023-05-24T06:42:59.756Z,69.61
2023-05-24T06:45:49.385Z,69.38
2023-05-24T06:48:39.204Z,69.56
2023-05-24T06:51:28.554Z,69.34
2023-05-24T06:54:19.702Z,68.95
2023-05-24T06:57:09.156Z,68.92
2023-05-24T06:59:58.496Z,68.64
2023-05-24T07:02:48.011Z,68.10
2023-05-24T07:05:37.350Z,68.64
2023-05-24T07:08:27.263Z,67.82
2023-05-24T07:11:18.188Z,67.31
2023-05-24T07:14:07.543Z,67.71
2023-05-24T07:17:00.178Z,67.45
2023-05-24T07:19:49.742Z,67.73
2023-05-24T07:22:39.089Z,67.33
2023-05-24T07:25:28.642Z,65.79
2023-05-24T07:28:20.445Z,65.07
2023-05-24T07:31:11.097Z,65.36
2023-05-24T07:34:00.415Z,65.27
2023-05-24T07:36:49.942Z,65.70
2023-05-24T07:39:39.332Z,65.08
2023-05-24T07:42:28.616Z,64.95
2023-05-24T07:45:19.456Z,63.78
2023-05-24T07:48:08.886Z,64.24
2023-05-24T07:50:58.357Z,62.39
2023-05-24T07:53:47.791Z,61.80
2023-05-24T07:56:37.847Z,62.54
2023-05-24T07:59:27.186Z,61.46
2023-05-24T08:02:18.241Z,60.47
2023-05-24T08:05:10.336Z,59.36
2023-05-24T08:08:00.993Z,60.13
2023-05-24T08:10:50.787Z,58.67
2023-05-24T08:13:40.049Z,59.53
2023-05-24T08:16:29.461Z,58.63
2023-05-24T08:19:21.271Z,58.21
2023-05-24T08:22:10.538Z,58.54
2023-05-24T08:24:59.931Z,58.10
2023-05-24T08:27:49.317Z,56.59
2023-05-24T08:30:38.875Z,56.64
2023-05-24T08:33:29.214Z,55.86
2023-05-24T08:36:20.122Z,55.74
2023-05-24T08:39:09.433Z,56.14
2023-05-24T08:42:09.409Z,54.76
2023-05-24T08:45:05.715Z,54.84
2023-05-24T08:47:57.122Z,55.08
2023-05-24T08:50:47.845Z,55.02
2023-05-24T08:53:40.339Z,54.79
2023-05-24T08:56:30.380Z,53.96
2023-05-24T08:59:19.830Z,53.38
2023-05-24T09:02:12.699Z,53.46
2023-05-24T09:05:02.636Z,53.19
2023-05-24T09:07:52.676Z,52.97
2023-05-24T09:10:54.069Z,52.59
2023-05-24T09:13:46.900Z,51.40
2023-05-24T09:16:36.983Z,51.70
2023-05-24T09:19:28.013Z,51.26
2023-05-24T09:22:20.319Z,51.30
2023-05-24T09:25:11.300Z,51.14
2023-05-24T09:28:08.801Z,51.34
2023-05-24T09:31:07.414Z,50.58
2023-05-24T09:33:57.477Z,51.14
2023-05-24T09:36:49.517Z,51.47
2023-05-24T09:39:39.532Z,49.46
2023-05-24T09:42:30.361Z,49.67
2023-05-24T09:45:29.354Z,49.34
2023-05-24T09:48:19.440Z,49.14
2023-05-24T09:51:10.339Z,49.11
2023-05-24T09:54:02.568Z,49.29
2023-05-24T09:56:53.792Z,49.43
2023-05-24T09:59:44.332Z,48.93
2023-05-24T10:02:41.610Z,48.10
2023-05-24T10:05:44.782Z,47.83
2023-05-24T10:08:36.473Z,47.07
2023-05-24T10:11:26.411Z,47.39
2023-05-24T10:14:16.373Z,46.90
2023-05-24T10:17:06.638Z,45.79
2023-05-24T10:19:57.549Z,44.69
2023-05-24T10:22:49.601Z,45.08
2023-05-24T10:25:45.575Z,44.91
2023-05-24T10:28:39.821Z,45.68
2023-05-24T10:31:34.460Z,46.34
2023-05-24T10:34:24.221Z,46.20
2023-05-24T10:37:15.034Z,45.98
2023-05-24T10:40:06.552Z,45.58
2023-05-24T10:42:55.991Z,46.10
2023-05-24T10:45:50.841Z,46.37
2023-05-24T10:48:41.602Z,47.10
2023-05-24T10:51:38.717Z,47.94
2023-05-24T10:54:29.756Z,47.49
2023-05-24T10:57:25.765Z,47.87
2023-05-24T11:00:35.614Z,47.97
2023-05-24T11:03:41.784Z,47.78
2023-05-24T11:06:50.639Z,46.98
2023-05-24T11:09:46.635Z,47.04
2023-05-24T11:12:38.981Z,46.65
2023-05-24T11:15:28.870Z,47.10
2023-05-24T11:18:20.478Z,46.77
2023-05-24T11:21:10.498Z,46.92
2023-05-24T11:23:59.955Z,46.33
2023-05-24T11:26:52.338Z,45.58
2023-05-24T11:29:46.797Z,45.31
2023-05-24T11:32:36.232Z,45.09
2023-05-24T11:35:28.250Z,44.38
2023-05-24T11:38:18.803Z,43.74
2023-05-24T11:41:09.545Z,43.86
2023-05-24T11:44:01.014Z,43.68
2023-05-24T11:46:50.409Z,43.65
2023-05-24T11:49:39.786Z,43.44
2023-05-24T11:52:29.243Z,43.49
2023-05-24T11:55:25.995Z,43.49
2023-05-24T11:58:24.441Z,43.50
2023-05-24T12:01:27.524Z,42.32
2023-05-24T12:04:16.937Z,41.60
2023-05-24T12:07:11.730Z,40.15
2023-05-24T12:10:01.040Z,39.81
2023-05-24T12:12:50.614Z,39.49
2023-05-24T12:15:40.011Z,38.79
2023-05-24T12:18:31.095Z,38.00
2023-05-24T12:21:21.619Z,37.35
2023-05-24T12:24:13.034Z,35.75
2023-05-24T12:27:07.194Z,34.90
2023-05-24T12:29:56.564Z,34.74
2023-05-24T12:32:47.040Z,35.23
2023-05-24T12:35:38.053Z,35.25
2023-05-24T12:38:27.910Z,34.64
2023-05-24T12:41:18.046Z,34.49
2023-05-24T12:44:07.878Z,33.86
2023-05-24T12:46:59.209Z,33.21
2023-05-24T12:49:49.126Z,33.79
2023-05-24T12:52:39.924Z,33.86
2023-05-24T12:55:30.566Z,33.42
2023-05-24T12:58:20.034Z,33.56
2023-05-24T13:01:09.520Z,32.90
2023-05-24T13:03:58.995Z,32.90
2023-05-24T13:06:49.389Z,32.34
2023-05-24T13:09:40.258Z,31.84
2023-05-24T13:12:29.608Z,32.04
2023-05-24T13:15:20.108Z,32.49
2023-05-24T13:18:09.509Z,32.60
2023-05-24T13:21:00.625Z,33.66
2023-05-24T13:23:50.032Z,34.02
2023-05-24T13:26:40.724Z,34.60
2023-05-24T13:29:39.346Z,35.14
2023-05-24T13:32:35.531Z,35.33
2023-05-24T13:35:24.841Z,35.63
2023-05-24T13:38:14.463Z,36.39
2023-05-24T13:41:03.836Z,36.68
2023-05-24T13:43:55.090Z,36.76
2023-05-24T13:46:46.013Z,36.37
2023-05-24T13:49:39.602Z,36.04
2023-05-24T13:52:31.760Z,36.43
2023-05-24T13:55:21.334Z,36.84
2023-05-24T13:58:13.954Z,37.66
2023-05-24T14:01:06.181Z,37.80
2023-05-24T14:03:57.436Z,38.83
2023-05-24T14:06:48.312Z,39.90
2023-05-24T14:09:46.015Z,40.53
2023-05-24T14:12:38.319Z,41.08
2023-05-24T14:15:27.963Z,41.10
2023-05-24T14:18:18.739Z,41.95
2023-05-24T14:21:08.811Z,42.50
2023-05-24T14:24:00.860Z,42.24
2023-05-24T14:26:50.257Z,42.22
2023-05-24T14:29:39.629Z,42.85
2023-05-24T14:32:29.182Z,43.28
2023-05-24T14:35:25.084Z,43.05
2023-05-24T14:38:14.341Z,43.28
2023-05-24T14:41:04.021Z,43.34
2023-05-24T14:43:55.778Z,43.32
2023-05-24T14:46:48.379Z,43.85
2023-05-24T14:49:37.791Z,44.00
2023-05-24T14:52:30.622Z,43.83
2023-05-24T14:55:22.154Z,44.48
2023-05-24T14:58:14.776Z,44.27
2023-05-24T15:01:04.366Z,44.55
2023-05-24T15:03:53.967Z,44.86
2023-05-24T15:06:43.570Z,44.87
2023-05-24T15:09:34.540Z,44.74
2023-05-24T15:12:24.184Z,44.49
2023-05-24T15:15:13.767Z,44.60
2023-05-24T15:18:03.489Z,44.62
2023-05-24T15:20:53.299Z,45.07
2023-05-24T15:23:42.793Z,45.05
2023-05-24T15:26:33.983Z,45.46
2023-05-24T15:29:23.434Z,45.35
2023-05-24T15:32:12.733Z,44.94
2023-05-24T15:35:02.121Z,44.48
2023-05-24T15:37:51.456Z,44.45
2023-05-24T15:40:42.373Z,44.35
2023-05-24T15:43:33.484Z,43.82
2023-05-24T15:46:23.429Z,44.14
2023-05-24T15:49:12.836Z,44.07
2023-05-24T15:52:05.273Z,44.19
2023-05-24T15:54:54.886Z,44.27
2023-05-24T15:57:44.197Z,44.68
2023-05-24T16:00:34.906Z,44.78
2023-05-24T16:03:24.385Z,44.80
2023-05-24T16:06:14.516Z,45.71
2023-05-24T16:09:05.465Z,45.72
2023-05-24T16:11:54.874Z,46.07
2023-05-24T16:14:44.226Z,46.64
2023-05-24T16:17:35.010Z,46.78
2023-05-24T16:20:24.542Z,47.07
2023-05-24T16:23:13.956Z,47.11
2023-05-24T16:26:03.257Z,47.45
2023-05-24T16:28:52.546Z,47.44
2023-05-24T16:31:41.928Z,47.42
2023-05-24T16:34:41.485Z,47.74
2023-05-24T16:37:41.634Z,48.25
2023-05-24T16:40:30.969Z,48.38
2023-05-24T16:43:23.277Z,48.59
2023-05-24T16:46:12.604Z,48.17
2023-05-24T16:49:02.288Z,48.46
2023-05-24T16:51:53.220Z,48.41
2023-05-24T16:54:42.825Z,48.55
2023-05-24T16:57:32.092Z,48.88
2023-05-24T17:00:22.694Z,49.20
2023-05-24T17:03:12.537Z,49.87
2023-05-24T17:06:04.037Z,49.53
2023-05-24T17:08:54.912Z,49.99
2023-05-24T17:11:44.255Z,49.89
2023-05-24T17:14:33.791Z,50.58
2023-05-24T17:17:23.162Z,50.76
2023-05-24T17:20:14.639Z,51.22
2023-05-24T17:23:04.315Z,51.53
2023-05-24T17:25:56.593Z,51.63
2023-05-24T17:28:47.123Z,51.71
2023-05-24T17:31:36.484Z,51.77
2023-05-24T17:34:25.947Z,51.50
2023-05-24T17:37:15.231Z,51.80
2023-05-24T17:40:04.940Z,52.06
2023-05-24T17:42:55.866Z,51.82
2023-05-24T17:45:45.594Z,51.73
2023-05-24T17:48:36.979Z,52.25
2023-05-24T17:51:26.387Z,52.30
2023-05-24T17:54:15.949Z,52.17
2023-05-24T17:57:05.996Z,52.58
2023-05-24T17:59:56.849Z,52.64
2023-05-24T18:02:46.175Z,52.60
2023-05-24T18:05:36.048Z,52.99
2023-05-24T18:08:26.170Z,53.30
2023-05-24T18:11:15.829Z,52.98
2023-05-24T18:14:05.106Z,53.27
2023-05-24T18:16:58.458Z,53.55
2023-05-24T18:19:48.125Z,53.68
2023-05-24T18:22:37.739Z,53.36
2023-05-24T18:25:27.116Z,53.44
2023-05-24T18:28:16.505Z,53.83
2023-05-24T18:31:08.509Z,53.62
2023-05-24T18:34:01.413Z,53.79
2023-05-24T18:36:52.507Z,53.60
2023-05-24T18:39:41.952Z,53.19
2023-05-24T18:42:31.373Z,53.21
2023-05-24T18:45:21.171Z,53.37
2023-05-24T18:48:11.376Z,53.38
2023-05-24T18:51:02.230Z,53.30
2023-05-24T18:53:51.954Z,53.73
2023-05-24T18:56:41.560Z,54.25
2023-05-24T18:59:31.775Z,54.41
2023-05-24T19:02:21.277Z,54.23
2023-05-24T19:05:11.424Z,54.72
2023-05-24T19:08:02.114Z,54.37
2023-05-24T19:10:51.891Z,54.41
2023-05-24T19:13:41.310Z,54.28
2023-05-24T19:16:31.034Z,54.79
2023-05-24T19:19:20.489Z,54.55
2023-05-24T19:22:09.866Z,54.49
2023-05-24T19:25:00.741Z,54.68
2023-05-24T19:30:42.814Z,55.58
2023-05-24T19:33:32.152Z,55.00
2023-05-24T19:36:21.698Z,54.84
2023-05-24T19:39:10.993Z,54.86
2023-05-24T19:42:01.828Z,54.78
2023-05-24T19:44:51.551Z,54.96
2023-05-24T19:47:41.366Z,54.88
2023-05-24T19:50:31.278Z,55.01
2023-05-24T19:53:20.855Z,55.09
2023-05-24T19:56:12.288Z,55.03
2023-05-24T19:59:03.169Z,54.88
2023-05-24T20:01:52.558Z,54.87
2023-05-24T20:04:43.988Z,55.26
2023-05-24T20:07:33.602Z,55.21
2023-05-24T20:10:23.112Z,55.14
2023-05-24T20:13:13.235Z,55.43
2023-05-24T20:16:04.282Z,55.49
2023-05-24T20:18:54.827Z,56.04
2023-05-24T20:21:44.121Z,56.04
2023-05-24T20:24:33.596Z,56.64
2023-05-24T20:27:23.046Z,56.31
2023-05-24T20:30:13.971Z,56.49
2023-05-24T20:33:04.911Z,56.31
2023-05-24T20:35:54.568Z,56.34
2023-05-24T20:38:43.976Z,56.34
2023-05-24T20:41:34.286Z,56.47
2023-05-24T20:44:23.545Z,56.29
2023-05-24T20:47:13.825Z,56.74
2023-05-24T20:50:04.845Z,56.73
2023-05-24T20:52:54.272Z,56.89
2023-05-24T20:55:44.087Z,56.76
2023-05-24T20:58:33.619Z,56.78
2023-05-24T21:01:23.292Z,57.06
2023-05-24T21:04:12.708Z,57.57
2023-05-24T21:07:03.524Z,57.77
2023-05-24T21:09:54.165Z,57.48
2023-05-24T21:12:43.538Z,57.51
2023-05-24T21:15:33.278Z,57.45
2023-05-24T21:18:22.792Z,57.75
2023-05-24T21:21:12.277Z,57.60
2023-05-24T21:24:03.524Z,57.66
2023-05-24T21:26:52.873Z,57.96
2023-05-24T21:29:42.556Z,57.66
2023-05-24T21:32:31.957Z,57.90
2023-05-24T21:35:21.772Z,57.98
2023-05-24T21:38:11.067Z,57.98
2023-05-24T21:41:01.920Z,58.15
2023-05-24T21:43:51.715Z,58.55
2023-05-24T21:46:41.332Z,59.01
2023-05-24T21:49:30.897Z,59.61
2023-05-24T21:52:20.918Z,59.21
2023-05-24T21:55:10.874Z,59.59
2023-05-24T21:58:01.597Z,59.59
2023-05-24T22:00:51.396Z,59.89
2023-05-24T22:03:41.072Z,59.82
2023-05-24T22:06:31.205Z,59.49
2023-05-24T22:09:20.578Z,60.26
2023-05-24T22:12:12.797Z,60.09
2023-05-24T22:15:03.941Z,60.74
2023-05-24T22:17:58.414Z,61.06
2023-05-24T22:20:50.689Z,61.44
2023-05-24T22:23:40.096Z,61.36
2023-05-24T22:26:30.696Z,61.20
2023-05-24T22:29:29.119Z,61.34
2023-05-24T22:32:20.074Z,61.56
2023-05-24T22:35:10.218Z,61.44
2023-05-24T22:37:59.569Z,61.65
2023-05-24T22:40:49.350Z,61.64
2023-05-24T22:43:38.617Z,62.22
2023-05-24T22:46:28.062Z,62.90
2023-05-24T22:49:19.827Z,62.82
2023-05-24T22:52:09.319Z,63.13
2023-05-24T22:54:58.713Z,63.17
2023-05-24T22:57:48.279Z,63.14
2023-05-24T23:00:37.663Z,63.67
2023-05-24T23:03:27.052Z,63.87
2023-05-24T23:06:18.006Z,63.49
2023-05-24T23:09:08.159Z,63.99
2023-05-24T23:11:59.021Z,63.70
2023-05-24T23:14:48.512Z,63.98
2023-05-24T23:17:37.893Z,64.31
2023-05-24T23:20:27.997Z,64.50
2023-05-24T23:23:19.169Z,64.98
2023-05-24T23:26:08.745Z,64.93
2023-05-24T23:28:58.089Z,65.26
2023-05-24T23:31:47.580Z,65.38
2023-05-24T23:34:37.645Z,65.47
2023-05-24T23:37:27.180Z,66.31
2023-05-24T23:40:17.962Z,65.58
2023-05-24T23:43:07.303Z,65.70
2023-05-24T23:45:56.744Z,66.45
2023-05-24T23:48:46.193Z,66.57
2023-05-24T23:51:35.997Z,66.87
2023-05-24T23:54:25.344Z,66.50
2023-05-24T23:57:38.537Z,66.82
